createdAt,value
2023-02-02T00:00:29.447Z,12.13
2023-02-02T00:03:32.279Z,12.32
2023-02-02T00:06:35.123Z,12.45
2023-02-02T00:09:37.984Z,12.23
2023-02-02T00:12:40.667Z,13.38
2023-02-02T00:15:43.429Z,12.33
2023-02-02T00:18:46.222Z,12.48
2023-02-02T00:21:49.298Z,21.85
2023-02-02T00:24:52.027Z,13.75
2023-02-02T00:27:54.991Z,14.02
2023-02-02T00:30:57.838Z,16.57
2023-02-02T00:34:00.855Z,14.57
2023-02-02T00:37:04.581Z,13.82
2023-02-02T00:40:07.891Z,15.10
2023-02-02T00:43:10.960Z,11.95
2023-02-02T00:46:18.869Z,13.97
2023-02-02T00:49:22.072Z,12.95
2023-02-02T00:52:25.087Z,13.43
2023-02-02T00:55:27.980Z,10.10
2023-02-02T00:58:30.800Z,14.98
2023-02-02T01:01:33.598Z,11.07
2023-02-02T01:04:36.512Z,11.18
2023-02-02T01:07:40.495Z,14.75
2023-02-02T01:10:43.170Z,12.75
2023-02-02T01:13:45.974Z,15.30
2023-02-02T01:16:48.956Z,17.43
2023-02-02T01:19:51.809Z,12.40
2023-02-02T01:22:54.809Z,14.38
2023-02-02T01:25:59.418Z,16.02
2023-02-02T01:29:02.169Z,18.08
2023-02-02T01:32:05.574Z,15.57
2023-02-02T01:35:10.348Z,14.07
2023-02-02T01:38:13.500Z,14.15
2023-02-02T01:41:22.734Z,14.82
2023-02-02T01:44:53.379Z,15.70
2023-02-02T01:47:59.992Z,11.97
2023-02-02T01:51:18.067Z,12.32
2023-02-02T01:54:29.873Z,13.32
2023-02-02T01:57:41.144Z,12.23
2023-02-02T02:00:46.940Z,11.43
2023-02-02T02:03:50.037Z,13.90
2023-02-02T02:06:53.925Z,13.75
2023-02-02T02:09:56.873Z,11.48
2023-02-02T02:12:59.942Z,16.55
2023-02-02T02:16:20.778Z,13.57
2023-02-02T02:19:28.372Z,14.37
2023-02-02T02:23:27.384Z,19.98
2023-02-02T02:27:03.231Z,15.10
2023-02-02T02:30:24.636Z,16.80
2023-02-02T02:33:54.453Z,17.98
2023-02-02T02:37:08.815Z,15.60
2023-02-02T02:40:22.274Z,12.90
2023-02-02T02:43:34.659Z,16.75
2023-02-02T02:46:38.791Z,14.35
2023-02-02T02:49:46.136Z,18.15
2023-02-02T02:52:52.514Z,15.00
2023-02-02T02:56:26.867Z,16.65
2023-02-02T02:59:48.131Z,16.67
2023-02-02T03:03:45.919Z,15.93
2023-02-02T03:06:55.320Z,18.83
2023-02-02T03:10:01.484Z,18.90
2023-02-02T03:13:09.768Z,16.65
2023-02-02T03:16:12.537Z,16.85
2023-02-02T03:19:15.238Z,16.48
2023-02-02T03:22:18.006Z,15.40
2023-02-02T03:25:20.682Z,18.70
2023-02-02T03:28:25.331Z,18.02
2023-02-02T03:31:29.301Z,13.65
2023-02-02T03:34:32.014Z,18.75
2023-02-02T03:37:35.243Z,15.63
2023-02-02T03:40:38.471Z,16.13
2023-02-02T03:43:41.295Z,17.58
2023-02-02T03:46:44.033Z,16.42
2023-02-02T03:49:46.832Z,14.70
2023-02-02T03:52:49.635Z,17.23
2023-02-02T03:55:52.397Z,17.10
2023-02-02T03:58:55.139Z,16.95
2023-02-02T04:01:58.189Z,18.60
2023-02-02T04:05:00.920Z,14.80
2023-02-02T04:08:03.707Z,6.68
2023-02-02T04:11:10.385Z,3.73
2023-02-02T04:14:13.170Z,3.17
2023-02-02T04:17:15.891Z,4.88
2023-02-02T04:20:18.887Z,5.68
2023-02-02T04:23:21.611Z,2.97
2023-02-02T04:26:27.473Z,2.93
2023-02-02T04:29:30.224Z,4.03
2023-02-02T04:32:32.983Z,6.97
2023-02-02T04:35:35.679Z,3.53
2023-02-02T04:38:38.443Z,4.80
2023-02-02T04:41:41.160Z,4.43
2023-02-02T04:44:45.899Z,5.78
2023-02-02T04:47:48.633Z,5.38
2023-02-02T04:50:51.387Z,4.75
2023-02-02T04:53:54.075Z,5.32
2023-02-02T04:56:56.850Z,5.23
2023-02-02T04:59:59.579Z,2.15
2023-02-02T05:03:02.350Z,2.45
2023-02-02T05:06:05.879Z,2.75
2023-02-02T05:09:08.786Z,2.03
2023-02-02T05:12:11.553Z,1.70
2023-02-02T05:15:14.273Z,2.42
2023-02-02T05:18:17.195Z,2.40
2023-02-02T05:21:20.760Z,1.10
2023-02-02T05:24:23.549Z,2.83
2023-02-02T05:27:26.319Z,1.97
2023-02-02T05:30:29.309Z,4.10
2023-02-02T05:33:32.502Z,4.38
2023-02-02T05:36:35.250Z,5.88
2023-02-02T05:39:38.051Z,6.10
2023-02-02T05:42:40.883Z,3.60
2023-02-02T05:45:43.720Z,1.65
2023-02-02T05:48:46.461Z,2.40
2023-02-02T05:51:53.998Z,1.67
2023-02-02T05:54:56.739Z,2.25
2023-02-02T05:57:59.539Z,1.40
2023-02-02T06:01:02.535Z,0.45
2023-02-02T06:04:05.363Z,0.68
2023-02-02T06:07:08.637Z,0.63
2023-02-02T06:10:11.911Z,0.50
2023-02-02T06:13:14.689Z,1.93
2023-02-02T06:16:17.467Z,0.17
2023-02-02T06:19:20.280Z,0.30
2023-02-02T06:22:23.071Z,0.45
2023-02-02T06:25:26.258Z,0.38
2023-02-02T06:28:31.514Z,1.40
2023-02-02T06:31:34.573Z,0.70
2023-02-02T06:34:37.453Z,0.38
2023-02-02T06:37:40.811Z,0.38
2023-02-02T06:40:43.626Z,1.98
2023-02-02T06:43:47.182Z,0.17
2023-02-02T06:46:49.977Z,1.60
2023-02-02T06:49:52.800Z,9.65
2023-02-02T06:52:57.808Z,52.92
2023-02-02T06:56:03.401Z,27.65
2023-02-02T06:59:06.256Z,11.17
2023-02-02T07:02:11.984Z,5.90
2023-02-02T07:05:14.851Z,5.10
2023-02-02T07:08:17.977Z,2.00
2023-02-02T07:11:21.046Z,1.13
2023-02-02T07:14:24.400Z,1.17
2023-02-02T07:17:27.149Z,1.67
2023-02-02T07:20:29.935Z,1.33
2023-02-02T07:23:34.161Z,3.05
2023-02-02T07:26:37.028Z,2.53
2023-02-02T07:29:40.073Z,1.27
2023-02-02T07:32:50.162Z,1.02
2023-02-02T07:35:53.168Z,0.50
2023-02-02T07:38:57.595Z,1.80
2023-02-02T07:42:00.425Z,0.95
2023-02-02T07:45:24.705Z,0.50
2023-02-02T07:48:31.168Z,1.20
2023-02-02T07:51:33.904Z,2.85
2023-02-02T07:54:36.941Z,1.13
2023-02-02T07:57:39.686Z,1.20
2023-02-02T08:00:42.699Z,2.27
2023-02-02T08:03:45.764Z,5.10
2023-02-02T08:06:48.718Z,6.60
2023-02-02T08:09:52.048Z,5.70
2023-02-02T08:12:54.908Z,8.27
2023-02-02T08:15:58.632Z,13.03
2023-02-02T08:19:01.582Z,6.15
2023-02-02T08:22:04.445Z,10.40
2023-02-02T08:25:08.005Z,8.75
2023-02-02T08:28:10.800Z,14.20
2023-02-02T08:31:19.035Z,10.30
2023-02-02T08:34:21.928Z,8.80
2023-02-02T08:37:24.740Z,4.47
2023-02-02T08:40:27.480Z,6.57
2023-02-02T08:43:30.488Z,6.20
2023-02-02T08:46:33.303Z,7.03
2023-02-02T08:49:36.154Z,9.68
2023-02-02T08:52:38.897Z,3.10
2023-02-02T08:55:41.754Z,1.98
2023-02-02T08:58:46.901Z,1.23
2023-02-02T09:01:49.690Z,1.80
2023-02-02T09:04:52.606Z,2.05
2023-02-02T09:07:55.385Z,1.77
2023-02-02T09:11:10.142Z,1.02
2023-02-02T09:14:14.230Z,0.60
2023-02-02T09:17:16.898Z,1.63
2023-02-02T09:20:20.620Z,0.65
2023-02-02T09:23:23.488Z,1.67
2023-02-02T09:26:29.956Z,2.85
2023-02-02T09:29:32.779Z,1.20
2023-02-02T09:32:35.541Z,0.70
2023-02-02T09:35:38.320Z,1.83
2023-02-02T09:38:42.116Z,0.70
2023-02-02T09:41:56.083Z,0.52
2023-02-02T09:45:22.793Z,0.40
2023-02-02T09:48:29.285Z,0.67
2023-02-02T09:51:41.615Z,1.40
2023-02-02T09:54:48.773Z,1.15
2023-02-02T09:58:13.263Z,0.60
2023-02-02T10:01:20.801Z,1.85
2023-02-02T10:04:34.194Z,1.37
2023-02-02T10:07:41.631Z,1.30
2023-02-02T10:10:47.190Z,1.65
2023-02-02T10:13:53.055Z,1.27
2023-02-02T10:17:03.410Z,0.57
2023-02-02T10:20:21.375Z,0.83
2023-02-02T10:23:44.661Z,0.98
2023-02-02T10:26:50.967Z,1.60
2023-02-02T10:30:01.961Z,2.20
2023-02-02T10:33:16.690Z,0.60
2023-02-02T10:36:34.821Z,1.93
2023-02-02T10:40:09.230Z,3.45
2023-02-02T10:43:46.605Z,2.33
2023-02-02T10:46:55.867Z,0.60
2023-02-02T10:50:07.578Z,2.22
2023-02-02T10:53:14.465Z,0.60
2023-02-02T10:56:22.678Z,1.42
2023-02-02T10:59:32.580Z,0.95
2023-02-02T11:02:35.501Z,0.70
2023-02-02T11:05:57.009Z,2.20
2023-02-02T11:09:01.349Z,1.17
2023-02-02T11:12:28.270Z,2.13
2023-02-02T11:15:31.476Z,1.63
2023-02-02T11:18:34.232Z,3.85
2023-02-02T11:21:38.729Z,3.67
2023-02-02T11:24:47.499Z,3.50
2023-02-02T11:27:50.272Z,2.20
2023-02-02T11:30:53.893Z,1.10
2023-02-02T11:34:20.768Z,1.70
2023-02-02T11:37:25.059Z,2.00
2023-02-02T11:40:30.766Z,2.13
2023-02-02T11:43:52.864Z,2.20
2023-02-02T11:46:57.496Z,3.97
2023-02-02T11:50:02.589Z,1.48
2023-02-02T11:53:06.986Z,3.95
2023-02-02T11:56:18.930Z,0.83
2023-02-02T11:59:42.120Z,0.90
2023-02-02T12:02:49.559Z,0.30
2023-02-02T12:05:52.571Z,1.77
2023-02-02T12:08:59.186Z,1.42
2023-02-02T12:12:04.795Z,0.97
2023-02-02T12:15:19.961Z,1.42
2023-02-02T12:18:48.087Z,0.50
2023-02-02T12:22:19.738Z,1.38
2023-02-02T12:26:04.555Z,2.10
2023-02-02T12:29:28.827Z,0.83
2023-02-02T12:33:01.941Z,0.52
2023-02-02T12:36:17.447Z,1.17
2023-02-02T12:39:22.674Z,2.88
2023-02-02T12:42:57.802Z,1.23
2023-02-02T12:46:11.715Z,2.17
2023-02-02T12:49:32.794Z,2.47
2023-02-02T12:52:47.540Z,3.58
2023-02-02T12:56:09.725Z,2.80
2023-02-02T12:59:24.283Z,2.35
2023-02-02T13:02:40.555Z,0.83
2023-02-02T13:06:01.250Z,3.00
2023-02-02T13:09:12.598Z,0.68
2023-02-02T13:12:20.114Z,1.52
2023-02-02T13:15:34.239Z,2.28
2023-02-02T13:19:01.327Z,1.07
2023-02-02T13:22:10.700Z,5.50
2023-02-02T13:25:31.011Z,4.85
2023-02-02T13:28:56.803Z,4.15
2023-02-02T13:32:25.146Z,3.70
2023-02-02T13:35:50.125Z,1.20
2023-02-02T13:39:01.628Z,2.78
2023-02-02T13:42:17.045Z,1.30
2023-02-02T13:45:44.406Z,2.33
2023-02-02T13:49:35.857Z,1.70
2023-02-02T13:53:12.382Z,2.27
2023-02-02T13:56:49.400Z,2.33
2023-02-02T14:00:13.171Z,1.85
2023-02-02T14:03:38.527Z,2.33
2023-02-02T14:06:57.391Z,1.67
2023-02-02T14:10:00.301Z,0.87
2023-02-02T14:13:45.471Z,0.85
2023-02-02T14:16:50.256Z,3.67
2023-02-02T14:19:56.315Z,3.53
2023-02-02T14:22:58.972Z,2.95
2023-02-02T14:26:07.015Z,1.80
2023-02-02T14:29:35.034Z,1.75
2023-02-02T14:32:42.930Z,3.47
2023-02-02T14:35:45.540Z,4.00
2023-02-02T14:38:55.892Z,1.80
2023-02-02T14:42:45.187Z,2.87
2023-02-02T14:45:50.164Z,1.02
2023-02-02T14:48:57.323Z,1.00
2023-02-02T14:52:03.052Z,1.55
2023-02-02T14:55:06.371Z,4.40
2023-02-02T14:58:09.898Z,2.77
2023-02-02T15:01:25.326Z,1.30
2023-02-02T15:04:29.384Z,3.45
2023-02-02T15:07:32.027Z,2.10
2023-02-02T15:10:53.740Z,3.15
2023-02-02T15:14:07.118Z,1.07
2023-02-02T15:17:42.061Z,3.33
2023-02-02T15:20:50.155Z,6.28
2023-02-02T15:23:53.309Z,5.60
2023-02-02T15:27:00.344Z,3.53
2023-02-02T15:30:07.722Z,1.40
2023-02-02T15:33:31.312Z,2.15
2023-02-02T15:36:38.095Z,3.83
2023-02-02T15:39:46.088Z,4.88
2023-02-02T15:42:57.511Z,3.35
2023-02-02T15:46:07.786Z,2.50
2023-02-02T15:49:33.182Z,2.55
2023-02-02T15:52:47.136Z,6.30
2023-02-02T15:55:50.755Z,7.85
2023-02-02T15:58:55.769Z,10.30
2023-02-02T16:02:26.529Z,7.13
2023-02-02T16:05:31.980Z,3.90
2023-02-02T16:08:37.937Z,4.05
2023-02-02T16:11:44.914Z,1.65
2023-02-02T16:14:51.695Z,1.63
2023-02-02T16:18:02.603Z,2.33
2023-02-02T16:21:14.887Z,2.78
2023-02-02T16:24:44.070Z,1.17
2023-02-02T16:27:48.853Z,0.98
2023-02-02T16:30:53.027Z,6.53
2023-02-02T16:33:57.039Z,4.00
2023-02-02T16:37:32.334Z,3.33
2023-02-02T16:40:35.482Z,3.47
2023-02-02T16:43:40.894Z,10.70
2023-02-02T16:46:49.549Z,1.60
2023-02-02T16:50:12.983Z,5.77
2023-02-02T16:53:24.253Z,4.47
2023-02-02T16:56:40.327Z,6.22
2023-02-02T16:59:48.584Z,6.85
2023-02-02T17:03:07.862Z,7.53
2023-02-02T17:06:10.737Z,9.93
2023-02-02T17:09:34.588Z,9.32
2023-02-02T17:12:38.139Z,8.77
2023-02-02T17:15:41.006Z,11.88
2023-02-02T17:18:44.034Z,11.73
2023-02-02T17:21:49.537Z,15.13
2023-02-02T17:24:53.215Z,13.88
2023-02-02T17:27:58.652Z,7.32
2023-02-02T17:31:08.572Z,6.82
2023-02-02T17:34:16.148Z,8.45
2023-02-02T17:37:19.018Z,8.13
2023-02-02T17:40:24.042Z,6.82
2023-02-02T17:43:27.704Z,3.42
2023-02-02T17:46:33.341Z,1.98
2023-02-02T17:49:36.158Z,1.98
2023-02-02T17:52:39.360Z,2.80
2023-02-02T17:55:44.150Z,2.85
2023-02-02T17:58:47.040Z,4.13
2023-02-02T18:01:50.697Z,2.13
2023-02-02T18:04:53.480Z,1.27
2023-02-02T18:07:56.485Z,1.60
2023-02-02T18:11:00.267Z,3.40
2023-02-02T18:14:03.098Z,3.75
2023-02-02T18:17:08.347Z,4.25
2023-02-02T18:20:15.380Z,3.53
2023-02-02T18:23:18.966Z,3.87
2023-02-02T18:26:23.064Z,1.63
2023-02-02T18:29:26.042Z,1.17
2023-02-02T18:32:28.804Z,1.25
2023-02-02T18:35:31.771Z,1.85
2023-02-02T18:38:34.912Z,1.20
2023-02-02T18:41:37.603Z,2.03
2023-02-02T18:44:40.311Z,1.27
2023-02-02T18:47:43.281Z,1.88
2023-02-02T18:50:46.157Z,1.85
2023-02-02T18:53:49.542Z,2.37
2023-02-02T18:56:52.571Z,3.10
2023-02-02T18:59:55.503Z,2.30
2023-02-02T19:02:58.451Z,1.08
2023-02-02T19:06:20.481Z,1.23
2023-02-02T19:09:24.874Z,0.50
2023-02-02T19:12:29.445Z,1.23
2023-02-02T19:15:42.913Z,1.15
2023-02-02T19:18:47.155Z,0.60
2023-02-02T19:22:02.004Z,3.70
2023-02-02T19:25:11.546Z,7.43
2023-02-02T19:28:23.307Z,2.70
2023-02-02T19:31:26.341Z,5.20
2023-02-02T19:34:33.347Z,2.50
2023-02-02T19:37:40.086Z,1.35
2023-02-02T19:40:44.157Z,1.10
2023-02-02T19:43:48.816Z,1.95
2023-02-02T19:46:52.999Z,1.60
2023-02-02T19:49:56.781Z,1.58
2023-02-02T19:52:59.918Z,1.02
2023-02-02T19:56:22.207Z,5.10
2023-02-02T19:59:30.387Z,2.15
2023-02-02T20:03:01.551Z,7.53
2023-02-02T20:06:05.065Z,1.67
2023-02-02T20:09:16.928Z,11.15
2023-02-02T20:12:28.631Z,1.47
2023-02-02T20:15:32.704Z,3.75
2023-02-02T20:18:48.736Z,2.38
2023-02-02T20:21:53.693Z,2.22
2023-02-02T20:24:58.024Z,3.03
2023-02-02T20:28:08.383Z,1.20
2023-02-02T20:31:19.884Z,2.20
2023-02-02T20:34:29.566Z,2.38
2023-02-02T20:37:36.089Z,4.05
2023-02-02T20:40:39.031Z,1.75
2023-02-02T20:43:42.008Z,4.43
2023-02-02T20:46:45.057Z,2.03
2023-02-02T20:49:47.968Z,3.33
2023-02-02T20:52:52.016Z,4.20
2023-02-02T20:55:58.312Z,6.85
2023-02-02T20:59:01.416Z,3.53
2023-02-02T21:02:05.477Z,6.10
2023-02-02T21:05:08.428Z,4.35
2023-02-02T21:08:11.297Z,2.13
2023-02-02T21:11:14.219Z,7.38
2023-02-02T21:14:17.308Z,2.27
2023-02-02T21:17:20.319Z,3.95
2023-02-02T21:20:23.038Z,3.38
2023-02-02T21:23:25.824Z,1.65
2023-02-02T21:26:30.906Z,3.35
2023-02-02T21:29:33.936Z,1.97
2023-02-02T21:32:37.030Z,2.28
2023-02-02T21:35:39.834Z,3.67
2023-02-02T21:38:42.558Z,2.75
2023-02-02T21:41:46.146Z,3.97
2023-02-02T21:44:56.452Z,2.63
2023-02-02T21:48:02.893Z,4.13
2023-02-02T21:51:24.220Z,2.08
2023-02-02T21:54:36.794Z,1.73
2023-02-02T21:57:39.581Z,3.88
2023-02-02T22:00:43.847Z,1.87
2023-02-02T22:03:49.716Z,0.93
2023-02-02T22:06:54.700Z,1.75
2023-02-02T22:09:57.824Z,0.88
2023-02-02T22:13:01.597Z,2.78
2023-02-02T22:16:10.619Z,3.57
2023-02-02T22:19:31.570Z,1.45
2023-02-02T22:22:36.681Z,1.88
2023-02-02T22:25:40.879Z,1.15
2023-02-02T22:28:43.650Z,2.65
2023-02-02T22:31:46.790Z,1.53
2023-02-02T22:34:49.589Z,2.38
2023-02-02T22:37:52.333Z,0.90
2023-02-02T22:40:55.180Z,0.85
2023-02-02T22:43:57.941Z,1.48
2023-02-02T22:47:00.628Z,2.10
2023-02-02T22:50:03.870Z,0.93
2023-02-02T22:53:06.776Z,1.13
2023-02-02T22:56:09.607Z,2.67
2023-02-02T22:59:12.428Z,2.08
2023-02-02T23:02:15.235Z,1.77
2023-02-02T23:05:19.875Z,1.20
2023-02-02T23:08:22.621Z,2.47
2023-02-02T23:11:25.434Z,2.00
2023-02-02T23:14:28.141Z,1.65
2023-02-02T23:17:31.960Z,3.17
2023-02-02T23:20:34.783Z,1.58
2023-02-02T23:23:37.549Z,2.05
2023-02-02T23:26:40.255Z,0.98
2023-02-02T23:29:43.184Z,5.53
2023-02-02T23:32:50.070Z,2.67
2023-02-02T23:35:52.796Z,3.22
2023-02-02T23:38:55.556Z,2.45
2023-02-02T23:41:58.394Z,3.40
2023-02-02T23:45:01.268Z,3.58
2023-02-02T23:48:04.156Z,1.83
2023-02-02T23:51:06.997Z,1.48
2023-02-02T23:54:13.968Z,2.67
2023-02-02T23:57:16.771Z,2.50
